Heaters, West Virginia
Current Conditions -  °F | °C
As of 5:15 AM on Saturday 20 Dec 2014 (Local Time) from KW22 Reporting Station
Overcast Overcast  
Wind Chill: -4°   Ceiling: 1300
Heat Index: -4°   Visibility: 10mi
Dew Point: -6°   Wind: 0mph
Humidity: 86%   Direction: NA
Pressure: 30.21"   Gusts: NA
Location:  38.76°N, 80.64°W
Report Text: KW22 201015Z AUTO 00000KT 10SM OVC013 M04/M06 A3021 RMK AO2
Loading
Personal Weather Stations






























Interactive Weather Map New forecast layout! Learn more

10-Day Weather Forecast

Advertisements
Track Severe Weather on mobile